createdAt,value
2018-01-14T00:01:28.631Z,102900.45
2018-01-14T00:03:55.143Z,102896.53
2018-01-14T00:06:21.358Z,102895.64
2018-01-14T00:08:47.553Z,102898.70
2018-01-14T00:11:13.776Z,102889.97
2018-01-14T00:13:39.953Z,102893.93
2018-01-14T00:16:06.156Z,102889.97
2018-01-14T00:18:32.417Z,102885.17
2018-01-14T00:20:58.898Z,102879.00
2018-01-14T00:23:25.064Z,102874.17
2018-01-14T00:25:51.288Z,102876.38
2018-01-14T00:28:17.476Z,102872.00
2018-01-14T00:30:43.686Z,102874.63
2018-01-14T00:33:09.966Z,102869.78
2018-01-14T00:35:36.182Z,102877.31
2018-01-14T00:38:02.361Z,102882.53
2018-01-14T00:40:28.588Z,102881.63
2018-01-14T00:42:54.809Z,102882.93
2018-01-14T00:45:21.043Z,102881.59
2018-01-14T00:47:47.325Z,102877.27
2018-01-14T00:50:13.492Z,102880.80
2018-01-14T00:52:39.974Z,102883.00
2018-01-14T00:55:06.244Z,102868.13
2018-01-14T00:57:32.417Z,102869.38
2018-01-14T00:59:58.617Z,102870.25
2018-01-14T01:02:24.840Z,102870.25
2018-01-14T01:04:51.050Z,102878.56
2018-01-14T01:07:17.225Z,102883.84
2018-01-14T01:09:43.802Z,102880.35
2018-01-14T01:12:10.001Z,102886.48
2018-01-14T01:14:36.228Z,102875.96
2018-01-14T01:17:02.819Z,102876.83
2018-01-14T01:19:28.988Z,102872.84
2018-01-14T01:21:55.194Z,102864.13
2018-01-14T01:24:21.457Z,102868.95
2018-01-14T01:26:47.672Z,102874.20
2018-01-14T01:29:13.865Z,102866.39
2018-01-14T01:31:40.353Z,102868.98
2018-01-14T01:34:06.596Z,102862.82
2018-01-14T01:36:32.795Z,102866.30
2018-01-14T01:38:59.376Z,102869.36
2018-01-14T01:41:25.865Z,102870.26
2018-01-14T01:43:52.397Z,102867.22
2018-01-14T01:46:18.981Z,102868.52
2018-01-14T01:48:45.169Z,102870.70
2018-01-14T01:51:11.362Z,102872.86
2018-01-14T01:53:37.612Z,102875.91
2018-01-14T01:56:03.816Z,102879.38
2018-01-14T01:58:30.009Z,102865.80
2018-01-14T02:03:27.924Z,102854.91
2018-01-14T02:05:54.202Z,102861.45
2018-01-14T02:08:20.404Z,102853.17
2018-01-14T02:10:46.622Z,102851.00
2018-01-14T02:13:12.845Z,102853.17
2018-01-14T02:15:39.024Z,102847.44
2018-01-14T02:18:05.327Z,102841.76
2018-01-14T02:20:31.537Z,102851.38
2018-01-14T02:22:57.708Z,102844.41
2018-01-14T02:25:24.215Z,102847.89
2018-01-14T02:27:50.752Z,102846.14
2018-01-14T02:30:17.461Z,102842.21
2018-01-14T02:32:43.660Z,102839.59
2018-01-14T02:35:09.856Z,102840.05
2018-01-14T02:37:43.053Z,102833.92
2018-01-14T02:40:09.881Z,102833.51
2018-01-14T02:42:36.081Z,102834.38
2018-01-14T02:45:02.305Z,102833.48
2018-01-14T02:47:28.579Z,102829.58
2018-01-14T02:49:54.760Z,102832.63
2018-01-14T02:52:20.962Z,102835.66
2018-01-14T02:54:47.512Z,102836.97
2018-01-14T02:57:13.726Z,102836.13
2018-01-14T02:59:39.913Z,102829.59
2018-01-14T03:02:06.184Z,102836.14
2018-01-14T03:04:32.776Z,102834.41
2018-01-14T03:06:59.003Z,102833.07
2018-01-14T03:09:25.251Z,102829.99
2018-01-14T03:11:51.452Z,102833.90
2018-01-14T03:14:17.652Z,102835.66
2018-01-14T03:16:44.224Z,102836.54
2018-01-14T03:19:10.450Z,102836.56
2018-01-14T03:21:37.160Z,102832.20
2018-01-14T03:24:03.323Z,102836.14
2018-01-14T03:26:29.592Z,102833.03
2018-01-14T03:28:55.843Z,102827.80
2018-01-14T03:31:22.022Z,102829.13
2018-01-14T03:33:48.231Z,102821.26
2018-01-14T03:36:14.455Z,102817.80
2018-01-14T03:38:40.644Z,102812.11
2018-01-14T03:41:06.835Z,102818.66
2018-01-14T03:43:33.082Z,102817.34
2018-01-14T03:45:59.679Z,102805.54
2018-01-14T03:48:25.889Z,102808.60
2018-01-14T03:50:52.123Z,102807.34
2018-01-14T03:53:18.320Z,102806.87
2018-01-14T03:55:44.607Z,102803.83
2018-01-14T03:58:10.883Z,102805.98
2018-01-14T04:00:37.050Z,102801.62
2018-01-14T04:03:03.256Z,102802.05
2018-01-14T04:05:29.808Z,102803.78
2018-01-14T04:07:55.993Z,102807.74
2018-01-14T04:10:22.236Z,102809.91
2018-01-14T04:12:49.741Z,102797.27
2018-01-14T04:15:15.945Z,102798.11
2018-01-14T04:17:42.559Z,102797.22
2018-01-14T04:20:08.723Z,102791.95
2018-01-14T04:22:35.254Z,102790.22
2018-01-14T04:25:01.496Z,102782.83
2018-01-14T04:27:27.672Z,102776.70
2018-01-14T04:29:54.200Z,102789.36
2018-01-14T04:32:20.372Z,102781.48
2018-01-14T04:34:46.544Z,102776.70
2018-01-14T04:37:12.776Z,102783.67
2018-01-14T04:39:38.935Z,102783.27
2018-01-14T04:42:05.145Z,102779.77
2018-01-14T04:44:31.757Z,102777.61
2018-01-14T04:46:57.944Z,102770.61
2018-01-14T04:49:24.152Z,102767.56
2018-01-14T04:51:50.415Z,102762.30
2018-01-14T04:54:16.633Z,102761.00
2018-01-14T04:56:42.840Z,102754.00
2018-01-14T04:59:09.090Z,102756.20
2018-01-14T05:01:35.314Z,102757.51
2018-01-14T05:04:01.525Z,102756.20
2018-01-14T05:06:27.756Z,102752.68
2018-01-14T05:08:53.948Z,102759.23
2018-01-14T05:11:20.160Z,102757.04
2018-01-14T05:13:46.826Z,102755.31
2018-01-14T05:16:13.004Z,102760.56
2018-01-14T05:18:39.209Z,102754.91
2018-01-14T05:21:05.459Z,102759.70
2018-01-14T05:23:31.634Z,102752.27
2018-01-14T05:25:57.813Z,102762.75
2018-01-14T05:28:24.067Z,102758.39
2018-01-14T05:30:50.269Z,102764.98
2018-01-14T05:33:16.793Z,102765.89
2018-01-14T05:35:43.049Z,102768.08
2018-01-14T05:38:09.220Z,102781.19
2018-01-14T05:40:35.393Z,102786.00
2018-01-14T05:43:01.642Z,102782.91
2018-01-14T05:45:27.849Z,102781.16
2018-01-14T05:47:54.057Z,102781.56
2018-01-14T05:50:20.304Z,102784.64
2018-01-14T05:52:46.501Z,102780.27
2018-01-14T05:55:12.732Z,102786.80
2018-01-14T05:57:38.926Z,102785.91
2018-01-14T06:00:05.212Z,102782.00
2018-01-14T06:02:31.727Z,102785.06
2018-01-14T06:04:58.268Z,102784.20
2018-01-14T06:07:31.459Z,102773.70
2018-01-14T06:09:57.993Z,102782.40
2018-01-14T06:12:24.183Z,102785.91
2018-01-14T06:14:50.520Z,102786.34
2018-01-14T06:17:16.980Z,102780.20
2018-01-14T06:19:43.187Z,102779.32
2018-01-14T06:22:09.817Z,102781.95
2018-01-14T06:24:36.105Z,102775.86
2018-01-14T06:27:02.312Z,102773.65
2018-01-14T06:29:28.843Z,102762.75
2018-01-14T06:31:55.032Z,102763.64
2018-01-14T06:34:21.212Z,102768.41
2018-01-14T06:36:47.469Z,102755.76
2018-01-14T06:39:13.685Z,102750.52
2018-01-14T06:41:39.863Z,102753.58
2018-01-14T06:44:06.502Z,102743.52
2018-01-14T06:46:32.688Z,102746.58
2018-01-14T06:48:58.880Z,102751.83
2018-01-14T06:51:25.409Z,102756.64
2018-01-14T06:53:51.673Z,102767.12
2018-01-14T06:56:18.167Z,102764.55
2018-01-14T06:58:44.372Z,102766.26
2018-01-14T07:01:10.575Z,102767.15
2018-01-14T07:03:37.098Z,102758.81
2018-01-14T07:06:03.276Z,102759.70
2018-01-14T07:08:29.504Z,102760.19
2018-01-14T07:10:56.121Z,102751.45
2018-01-14T07:13:22.297Z,102753.17
2018-01-14T07:15:48.489Z,102750.53
2018-01-14T07:18:14.725Z,102751.83
2018-01-14T07:20:40.936Z,102753.62
2018-01-14T07:23:07.501Z,102740.94
2018-01-14T07:25:34.035Z,102737.88
2018-01-14T07:28:00.266Z,102727.86
2018-01-14T07:30:26.799Z,102727.42
2018-01-14T07:32:53.013Z,102717.78
2018-01-14T07:35:19.325Z,102723.04
2018-01-14T07:37:45.996Z,102726.11
2018-01-14T07:40:12.537Z,102738.34
2018-01-14T07:42:38.752Z,102731.79
2018-01-14T07:45:05.093Z,102733.55
2018-01-14T07:47:31.628Z,102729.63
2018-01-14T07:49:58.159Z,102724.38
2018-01-14T07:52:24.374Z,102726.58
2018-01-14T07:54:50.547Z,102720.45
2018-01-14T07:57:16.792Z,102723.92
2018-01-14T07:59:43.279Z,102727.42
2018-01-14T08:02:09.549Z,102736.66
2018-01-14T08:04:35.785Z,102731.85
2018-01-14T08:07:01.980Z,102734.05
2018-01-14T08:09:28.180Z,102732.30
2018-01-14T08:11:54.435Z,102726.64
2018-01-14T08:14:20.627Z,102727.50
2018-01-14T08:16:46.821Z,102727.52
2018-01-14T08:19:13.037Z,102724.91
2018-01-14T08:21:39.256Z,102728.39
2018-01-14T08:24:05.758Z,102733.62
2018-01-14T08:26:32.005Z,102733.62
2018-01-14T08:28:58.234Z,102741.04
2018-01-14T08:31:24.440Z,102735.81
2018-01-14T08:33:50.988Z,102738.06
2018-01-14T08:36:24.261Z,102738.44
2018-01-14T08:38:50.811Z,102742.35
2018-01-14T08:41:17.015Z,102748.48
2018-01-14T08:43:43.217Z,102745.42
2018-01-14T08:46:09.433Z,102748.48
2018-01-14T08:48:35.696Z,102748.91
2018-01-14T08:51:01.905Z,102748.45
2018-01-14T08:53:28.152Z,102751.09
2018-01-14T08:55:54.417Z,102747.62
2018-01-14T08:58:20.633Z,102753.77
2018-01-14T09:00:46.815Z,102759.89
2018-01-14T09:03:13.076Z,102762.55
2018-01-14T09:05:39.280Z,102764.73
2018-01-14T09:08:05.490Z,102758.63
2018-01-14T09:10:31.748Z,102757.77
2018-01-14T09:12:58.213Z,102741.19
2018-01-14T09:15:24.428Z,102735.06
2018-01-14T09:17:50.746Z,102735.05
2018-01-14T09:20:16.952Z,102733.72
2018-01-14T09:22:43.138Z,102733.73
2018-01-14T09:25:09.696Z,102732.88
2018-01-14T09:27:35.920Z,102724.61
2018-01-14T09:30:02.426Z,102725.89
2018-01-14T09:32:29.264Z,102722.86
2018-01-14T09:34:55.488Z,102719.84
2018-01-14T09:37:21.697Z,102724.20
2018-01-14T09:39:47.981Z,102723.35
2018-01-14T09:42:14.588Z,102730.40
2018-01-14T09:44:40.768Z,102733.02
2018-01-14T09:47:07.111Z,102736.07
2018-01-14T09:49:33.352Z,102736.94
2018-01-14T09:51:59.551Z,102741.75
2018-01-14T09:54:25.797Z,102739.64
2018-01-14T09:56:52.000Z,102726.09
2018-01-14T09:59:18.220Z,102731.34
2018-01-14T10:01:44.828Z,102732.22
2018-01-14T10:04:11.013Z,102732.69
2018-01-14T10:06:37.471Z,102733.16
2018-01-14T10:09:03.796Z,102739.31
2018-01-14T10:11:29.980Z,102742.36
2018-01-14T10:13:56.155Z,102732.30
2018-01-14T10:16:22.388Z,102735.40
2018-01-14T10:18:48.591Z,102737.16
2018-01-14T10:21:14.812Z,102725.81
2018-01-14T10:23:41.085Z,102728.00
2018-01-14T10:26:07.306Z,102724.95
2018-01-14T10:28:33.496Z,102714.01
2018-01-14T10:31:00.072Z,102713.59
2018-01-14T10:33:26.276Z,102712.34
2018-01-14T10:35:52.476Z,102715.02
2018-01-14T10:38:18.813Z,102723.77
2018-01-14T10:40:45.090Z,102722.45
2018-01-14T10:43:11.292Z,102717.23
2018-01-14T10:45:37.494Z,102714.66
2018-01-14T10:48:03.728Z,102721.25
2018-01-14T10:50:30.022Z,102715.09
2018-01-14T10:52:56.305Z,102714.68
2018-01-14T10:55:22.486Z,102715.98
2018-01-14T10:57:48.990Z,102713.81
2018-01-14T11:00:15.212Z,102709.45
2018-01-14T11:02:41.508Z,102706.81
2018-01-14T11:05:07.738Z,102701.57
2018-01-14T11:07:33.973Z,102701.98
2018-01-14T11:10:00.181Z,102706.34
2018-01-14T11:12:26.377Z,102703.30
2018-01-14T11:14:52.657Z,102693.66
2018-01-14T11:17:18.865Z,102683.99
2018-01-14T11:19:45.081Z,102690.13
2018-01-14T11:22:11.316Z,102682.70
2018-01-14T11:24:37.524Z,102670.87
2018-01-14T11:27:04.037Z,102663.90
2018-01-14T11:29:39.381Z,102659.50
2018-01-14T11:32:05.614Z,102650.32
2018-01-14T11:34:31.796Z,102646.83
2018-01-14T11:36:58.273Z,102636.76
2018-01-14T11:39:24.843Z,102642.46
2018-01-14T11:41:51.334Z,102642.46
2018-01-14T11:44:17.541Z,102638.52
2018-01-14T11:46:43.787Z,102637.64
2018-01-14T11:49:10.332Z,102635.86
2018-01-14T11:51:36.639Z,102638.03
2018-01-14T11:54:02.887Z,102630.59
2018-01-14T11:56:29.085Z,102631.45
2018-01-14T11:58:55.549Z,102630.58
2018-01-14T12:01:21.800Z,102620.10
2018-01-14T12:03:48.317Z,102616.59
2018-01-14T12:06:14.553Z,102625.30
2018-01-14T12:08:40.770Z,102620.91
2018-01-14T12:11:06.956Z,102622.25
2018-01-14T12:13:33.571Z,102614.38
2018-01-14T12:15:59.773Z,102616.56
2018-01-14T12:18:25.979Z,102612.59
2018-01-14T12:20:52.208Z,102602.55
2018-01-14T12:23:18.410Z,102602.13
2018-01-14T12:25:44.614Z,102603.02
2018-01-14T12:28:10.850Z,102605.19
2018-01-14T12:30:44.280Z,102603.03
2018-01-14T12:33:10.516Z,102593.42
2018-01-14T12:35:36.782Z,102592.55
2018-01-14T12:38:02.994Z,102586.89
2018-01-14T12:40:29.173Z,102592.16
2018-01-14T12:42:55.433Z,102587.82
2018-01-14T12:45:21.626Z,102575.59
2018-01-14T12:47:47.849Z,102579.97
2018-01-14T12:50:14.130Z,102579.53
2018-01-14T12:52:40.411Z,102581.29
2018-01-14T12:55:06.645Z,102571.66
2018-01-14T12:57:32.894Z,102569.92
2018-01-14T12:59:59.106Z,102570.80
2018-01-14T13:02:25.290Z,102574.77
2018-01-14T13:04:51.538Z,102573.86
2018-01-14T13:07:17.718Z,102572.14
2018-01-14T13:09:43.892Z,102574.75
2018-01-14T13:12:10.082Z,102573.04
2018-01-14T13:14:36.644Z,102564.27
2018-01-14T13:17:02.817Z,102568.66
2018-01-14T13:19:28.991Z,102573.89
2018-01-14T13:21:55.271Z,102572.16
2018-01-14T13:24:21.452Z,102572.17
2018-01-14T13:26:47.952Z,102570.42
2018-01-14T13:29:14.217Z,102563.86
2018-01-14T13:31:40.428Z,102559.05
2018-01-14T13:34:06.980Z,102563.03
2018-01-14T13:36:33.552Z,102559.95
2018-01-14T13:38:59.733Z,102556.41
2018-01-14T13:41:25.908Z,102545.97
2018-01-14T13:43:52.164Z,102552.94
2018-01-14T13:46:18.372Z,102554.23
2018-01-14T13:48:44.997Z,102542.88
2018-01-14T13:51:11.213Z,102533.23
2018-01-14T13:53:37.514Z,102531.02
2018-01-14T13:56:04.024Z,102528.38
2018-01-14T13:58:30.556Z,102517.44
2018-01-14T14:00:56.786Z,102516.15
2018-01-14T14:03:23.082Z,102513.07
2018-01-14T14:05:49.660Z,102506.96
2018-01-14T14:08:15.873Z,102502.13
2018-01-14T14:10:42.415Z,102497.33
2018-01-14T14:13:08.625Z,102486.83
2018-01-14T14:15:34.839Z,102486.40
2018-01-14T14:18:01.074Z,102475.44
2018-01-14T14:20:27.538Z,102474.13
2018-01-14T14:22:53.725Z,102474.13
2018-01-14T14:25:20.268Z,102471.06
2018-01-14T14:27:46.460Z,102472.38
2018-01-14T14:30:12.654Z,102479.80
2018-01-14T14:32:38.907Z,102483.32
2018-01-14T14:35:05.115Z,102481.56
2018-01-14T14:37:31.359Z,102478.06
2018-01-14T14:39:57.580Z,102478.48
2018-01-14T14:42:23.882Z,102478.91
2018-01-14T14:47:22.898Z,102478.91
2018-01-14T14:49:49.065Z,102479.78
2018-01-14T14:52:15.672Z,102471.45
2018-01-14T14:54:41.987Z,102472.78
2018-01-14T14:57:08.168Z,102463.59
2018-01-14T14:59:34.401Z,102463.56
2018-01-14T15:02:00.584Z,102465.77
2018-01-14T15:04:26.760Z,102459.64
2018-01-14T15:06:53.005Z,102469.23
2018-01-14T15:09:19.225Z,102463.99
2018-01-14T15:11:45.456Z,102466.59
2018-01-14T15:14:11.695Z,102466.60
2018-01-14T15:16:37.884Z,102463.09
2018-01-14T15:19:04.589Z,102466.59
2018-01-14T15:21:30.792Z,102466.59
2018-01-14T15:23:57.084Z,102459.14
2018-01-14T15:26:23.345Z,102463.94
2018-01-14T15:28:49.559Z,102461.73
2018-01-14T15:31:15.773Z,102455.17
2018-01-14T15:36:13.987Z,102459.53
2018-01-14T15:38:40.225Z,102462.58
2018-01-14T15:41:06.681Z,102463.02
2018-01-14T15:43:33.255Z,102463.03
2018-01-14T15:45:59.465Z,102459.49
2018-01-14T15:48:25.653Z,102462.52
2018-01-14T15:50:51.882Z,102465.53
2018-01-14T15:53:25.097Z,102464.67
2018-01-14T15:55:51.629Z,102474.27
2018-01-14T15:58:18.168Z,102469.92
2018-01-14T16:00:44.356Z,102473.41
2018-01-14T16:03:10.555Z,102469.03
2018-01-14T16:05:36.804Z,102465.10
2018-01-14T16:08:02.993Z,102464.22
2018-01-14T16:10:29.165Z,102470.33
2018-01-14T16:12:55.380Z,102467.72
2018-01-14T16:15:21.576Z,102456.33
2018-01-14T16:17:48.128Z,102450.22
2018-01-14T16:20:14.320Z,102452.42
2018-01-14T16:22:40.540Z,102448.91
2018-01-14T16:25:07.537Z,102453.71
2018-01-14T16:27:33.736Z,102462.88
2018-01-14T16:29:59.940Z,102464.64
2018-01-14T16:32:26.156Z,102462.45
2018-01-14T16:34:52.421Z,102457.63
2018-01-14T16:37:18.629Z,102457.19
2018-01-14T16:39:44.868Z,102453.70
2018-01-14T16:42:11.295Z,102446.71
2018-01-14T16:44:37.510Z,102451.50
2018-01-14T16:47:04.104Z,102456.30
2018-01-14T16:49:30.309Z,102458.03
2018-01-14T16:51:56.496Z,102457.14
2018-01-14T16:54:22.724Z,102456.30
2018-01-14T16:56:48.971Z,102459.34
2018-01-14T16:59:15.206Z,102457.58
2018-01-14T17:01:41.460Z,102465.00
2018-01-14T17:04:07.684Z,102453.67
2018-01-14T17:06:34.008Z,102458.47
2018-01-14T17:09:00.223Z,102453.66
2018-01-14T17:11:26.521Z,102449.71
2018-01-14T17:13:53.121Z,102440.97
2018-01-14T17:16:19.310Z,102439.21
2018-01-14T17:18:45.501Z,102442.26
2018-01-14T17:21:11.755Z,102440.52
2018-01-14T17:23:37.967Z,102439.64
2018-01-14T17:26:04.189Z,102435.27
2018-01-14T17:28:30.394Z,102430.91
2018-01-14T17:30:56.629Z,102424.33
2018-01-14T17:33:22.885Z,102427.41
2018-01-14T17:35:49.083Z,102425.24
2018-01-14T17:38:15.752Z,102423.05
2018-01-14T17:40:41.950Z,102425.69
2018-01-14T17:43:08.140Z,102418.69
2018-01-14T17:45:34.623Z,102421.73
2018-01-14T17:48:00.800Z,102413.89
2018-01-14T17:50:27.325Z,102416.97
2018-01-14T17:52:53.600Z,102416.94
2018-01-14T17:55:19.797Z,102412.56
2018-01-14T17:57:46.052Z,102406.89
2018-01-14T18:00:12.409Z,102402.97
2018-01-14T18:02:38.597Z,102404.69
2018-01-14T18:05:04.820Z,102396.39
2018-01-14T18:07:31.057Z,102395.97
2018-01-14T18:09:57.228Z,102392.02
2018-01-14T18:12:23.473Z,102391.12
2018-01-14T18:14:49.677Z,102395.07
2018-01-14T18:17:24.480Z,102397.23
2018-01-14T18:19:50.652Z,102393.75
2018-01-14T18:22:16.856Z,102401.16
2018-01-14T18:24:43.146Z,102402.03
2018-01-14T18:27:09.355Z,102401.16
2018-01-14T18:29:35.887Z,102397.25
2018-01-14T18:32:02.225Z,102406.41
2018-01-14T18:34:28.508Z,102410.34
2018-01-14T18:36:54.816Z,102414.27
2018-01-14T18:39:21.078Z,102416.88
2018-01-14T18:41:47.533Z,102404.64
2018-01-14T18:44:13.712Z,102404.20
2018-01-14T18:46:40.229Z,102404.65
2018-01-14T18:49:06.417Z,102400.70
2018-01-14T18:51:32.609Z,102405.54
2018-01-14T18:53:58.932Z,102388.52
2018-01-14T18:56:25.148Z,102390.23
2018-01-14T18:58:51.348Z,102389.37
2018-01-14T19:01:17.592Z,102382.37
2018-01-14T19:03:43.820Z,102378.91
2018-01-14T19:06:10.001Z,102374.98
2018-01-14T19:08:36.221Z,102375.39
2018-01-14T19:11:09.261Z,102368.84
2018-01-14T19:13:35.480Z,102382.82
2018-01-14T19:16:01.740Z,102381.05
2018-01-14T19:18:27.949Z,102384.11
2018-01-14T19:20:54.152Z,102381.50
2018-01-14T19:23:20.679Z,102383.25
2018-01-14T19:25:46.849Z,102372.33
2018-01-14T19:28:13.044Z,102371.91
2018-01-14T19:30:39.279Z,102374.06
2018-01-14T19:33:05.482Z,102362.28
2018-01-14T19:35:31.689Z,102361.81
2018-01-14T19:37:57.956Z,102354.83
2018-01-14T19:40:24.379Z,102359.64
2018-01-14T19:42:50.599Z,102358.34
2018-01-14T19:45:16.865Z,102344.39
2018-01-14T19:47:43.046Z,102347.43
2018-01-14T19:50:09.258Z,102352.66
2018-01-14T19:52:35.831Z,102360.08
2018-01-14T19:55:02.369Z,102359.22
2018-01-14T19:57:28.899Z,102361.38
2018-01-14T19:59:55.329Z,102354.86
2018-01-14T20:02:22.281Z,102351.36
2018-01-14T20:04:48.497Z,102350.47
2018-01-14T20:07:14.704Z,102350.91
2018-01-14T20:09:41.685Z,102345.70
2018-01-14T20:12:07.864Z,102348.75
2018-01-14T20:14:34.035Z,102346.55
2018-01-14T20:17:00.609Z,102346.11
2018-01-14T20:19:26.820Z,102342.20
2018-01-14T20:21:53.032Z,102341.30
2018-01-14T20:24:19.553Z,102346.55
2018-01-14T20:26:45.764Z,102341.76
2018-01-14T20:29:11.931Z,102341.33
2018-01-14T20:31:38.458Z,102334.75
2018-01-14T20:34:04.641Z,102333.47
2018-01-14T20:36:30.940Z,102326.88
2018-01-14T20:38:57.132Z,102320.78
2018-01-14T20:41:23.704Z,102309.84
2018-01-14T20:43:49.889Z,102308.13
2018-01-14T20:46:16.092Z,102302.42
2018-01-14T20:48:42.373Z,102300.23
2018-01-14T20:51:08.582Z,102301.98
2018-01-14T20:53:34.861Z,102301.98
2018-01-14T20:56:01.380Z,102295.89
2018-01-14T20:58:27.572Z,102288.47
2018-01-14T21:00:53.743Z,102291.51
2018-01-14T21:03:20.006Z,102281.48
2018-01-14T21:05:46.225Z,102278.86
2018-01-14T21:08:12.714Z,102270.14
2018-01-14T21:10:39.040Z,102268.83
2018-01-14T21:13:05.252Z,102267.52
2018-01-14T21:15:31.553Z,102264.00
2018-01-14T21:17:58.117Z,102264.02
2018-01-14T21:20:24.316Z,102269.27
2018-01-14T21:22:50.565Z,102272.31
2018-01-14T21:25:16.804Z,102265.77
2018-01-14T21:27:43.008Z,102255.71
2018-01-14T21:30:09.253Z,102253.54
2018-01-14T21:32:35.424Z,102246.54
2018-01-14T21:35:01.589Z,102248.72
2018-01-14T21:37:27.867Z,102241.75
2018-01-14T21:39:54.043Z,102240.88
2018-01-14T21:42:20.599Z,102248.28
2018-01-14T21:44:46.768Z,102240.02
2018-01-14T21:47:12.956Z,102232.14
2018-01-14T21:49:39.228Z,102229.94
2018-01-14T21:52:05.404Z,102226.89
2018-01-14T21:54:31.604Z,102230.39
2018-01-14T21:56:58.121Z,102225.58
2018-01-14T21:59:24.612Z,102216.86
2018-01-14T22:01:50.816Z,102198.94
2018-01-14T22:04:17.271Z,102197.22
2018-01-14T22:06:43.440Z,102195.42
2018-01-14T22:09:09.700Z,102198.93
2018-01-14T22:11:35.921Z,102201.14
2018-01-14T22:14:02.108Z,102197.61
2018-01-14T22:16:29.025Z,102192.83
2018-01-14T22:18:55.214Z,102180.61
2018-01-14T22:21:21.428Z,102176.25
2018-01-14T22:23:47.701Z,102172.75
2018-01-14T22:26:13.899Z,102170.13
2018-01-14T22:28:40.080Z,102174.08
2018-01-14T22:31:06.286Z,102176.70
2018-01-14T22:33:32.486Z,102176.70
2018-01-14T22:35:58.752Z,102168.39
2018-01-14T22:38:24.983Z,102162.70
2018-01-14T22:40:51.179Z,102161.83
2018-01-14T22:43:17.437Z,102153.09
2018-01-14T22:45:43.967Z,102150.49
2018-01-14T22:48:10.505Z,102147.86
2018-01-14T22:50:37.041Z,102133.45
2018-01-14T22:53:03.616Z,102136.52
2018-01-14T22:55:29.916Z,102130.00
2018-01-14T22:57:56.094Z,102124.75
2018-01-14T23:00:22.669Z,102119.08
2018-01-14T23:02:48.880Z,102107.27
2018-01-14T23:05:15.092Z,102102.05
2018-01-14T23:07:41.655Z,102099.00
2018-01-14T23:10:07.825Z,102093.30
2018-01-14T23:12:34.027Z,102091.99
2018-01-14T23:15:06.303Z,102086.31
2018-01-14T23:17:32.474Z,102085.91
2018-01-14T23:19:58.721Z,102079.78
2018-01-14T23:22:24.964Z,102069.73
2018-01-14T23:24:51.508Z,102067.99
2018-01-14T23:27:17.697Z,102065.37
2018-01-14T23:29:44.262Z,102064.94
2018-01-14T23:32:10.805Z,102059.69
2018-01-14T23:34:36.968Z,102056.66
2018-01-14T23:37:03.459Z,102054.48
2018-01-14T23:39:29.672Z,102051.83
2018-01-14T23:41:56.224Z,102046.61
2018-01-14T23:44:22.729Z,102045.74
2018-01-14T23:46:48.931Z,102044.41
2018-01-14T23:49:15.152Z,102037.89
2018-01-14T23:51:41.417Z,102032.20
2018-01-14T23:54:07.605Z,102030.89
2018-01-14T23:56:33.837Z,102019.09
2018-01-14T23:59:00.041Z,102007.34
